createdAt,value
2023-04-05T00:00:13.442Z,12.81
2023-04-05T00:00:35.063Z,12.77
2023-04-05T00:00:57.323Z,12.83
2023-04-05T00:01:20.371Z,12.84
2023-04-05T00:01:42.608Z,12.80
2023-04-05T00:02:05.342Z,12.77
2023-04-05T00:02:29.736Z,12.71
2023-04-05T00:02:52.865Z,12.75
2023-04-05T00:03:14.880Z,12.77
2023-04-05T00:03:36.945Z,12.78
2023-04-05T00:04:00.623Z,12.79
2023-04-05T00:04:24.228Z,12.51
2023-04-05T00:04:50.546Z,12.77
2023-04-05T00:05:12.383Z,12.72
2023-04-05T00:05:34.374Z,12.73
2023-04-05T00:05:57.143Z,12.66
2023-04-05T00:06:21.965Z,12.73
2023-04-05T00:06:43.961Z,12.72
2023-04-05T00:07:08.496Z,12.67
2023-04-05T00:07:30.434Z,12.65
2023-04-05T00:07:54.404Z,12.65
2023-04-05T00:08:24.253Z,12.55
2023-04-05T00:08:50.260Z,12.63
2023-04-05T00:09:13.461Z,12.60
2023-04-05T00:09:35.134Z,12.59
2023-04-05T00:09:57.757Z,12.56
2023-04-05T00:10:19.355Z,12.54
2023-04-05T00:10:41.278Z,12.49
2023-04-05T00:11:03.106Z,12.54
2023-04-05T00:11:25.763Z,12.51
2023-04-05T00:11:48.672Z,12.52
2023-04-05T00:12:10.658Z,12.49
2023-04-05T00:12:33.349Z,12.57
2023-04-05T00:12:56.652Z,12.57
2023-04-05T00:13:18.325Z,12.53
2023-04-05T00:13:40.844Z,12.55
2023-04-05T00:14:03.320Z,12.37
2023-04-05T00:14:25.041Z,12.52
2023-04-05T00:14:46.713Z,12.54
2023-04-05T00:15:09.730Z,12.53
2023-04-05T00:15:32.199Z,12.52
2023-04-05T00:15:54.853Z,12.50
2023-04-05T00:16:17.134Z,12.50
2023-04-05T00:16:38.957Z,12.53
2023-04-05T00:17:01.702Z,12.52
2023-04-05T00:17:23.962Z,12.51
2023-04-05T00:17:46.049Z,12.49
2023-04-05T00:18:07.758Z,12.51
2023-04-05T00:18:34.499Z,12.49
2023-04-05T00:18:57.190Z,12.48
2023-04-05T00:19:19.513Z,12.47
2023-04-05T00:19:43.196Z,12.45
2023-04-05T00:20:22.074Z,12.45
2023-04-05T00:20:43.871Z,12.43
2023-04-05T00:21:05.966Z,12.44
2023-04-05T00:21:28.784Z,12.40
2023-04-05T00:21:50.474Z,12.42
2023-04-05T00:22:12.168Z,12.38
2023-04-05T00:22:36.082Z,12.30
2023-04-05T00:22:57.757Z,12.44
2023-04-05T00:23:21.250Z,12.44
2023-04-05T00:23:44.934Z,12.44
2023-04-05T00:24:15.304Z,12.38
2023-04-05T00:24:42.162Z,12.39
2023-04-05T00:25:04.429Z,12.38
2023-04-05T00:25:26.200Z,12.38
2023-04-05T00:25:48.894Z,12.32
2023-04-05T00:26:11.314Z,12.36
2023-04-05T00:26:34.330Z,12.27
2023-04-05T00:26:56.712Z,12.36
2023-04-05T00:27:19.377Z,12.36
2023-04-05T00:27:43.424Z,12.35
2023-04-05T00:28:06.519Z,12.29
2023-04-05T00:28:28.120Z,12.34
2023-04-05T00:28:50.644Z,12.37
2023-04-05T00:29:13.219Z,12.37
2023-04-05T00:29:35.165Z,12.37
2023-04-05T00:29:57.793Z,12.33
2023-04-05T00:30:21.281Z,12.35
2023-04-05T00:30:43.975Z,12.35
2023-04-05T00:31:06.176Z,12.34
2023-04-05T00:31:29.202Z,12.29
2023-04-05T00:31:51.402Z,12.33
2023-04-05T00:32:14.133Z,12.31
2023-04-05T00:32:36.113Z,12.33
2023-04-05T00:32:57.877Z,12.28
2023-04-05T00:33:19.574Z,12.27
2023-04-05T00:33:41.577Z,12.36
2023-04-05T00:34:05.972Z,12.36
2023-04-05T00:34:27.945Z,12.19
2023-04-05T00:34:50.368Z,12.35
2023-04-05T00:35:12.023Z,12.38
2023-04-05T00:35:33.677Z,12.38
2023-04-05T00:35:56.671Z,12.37
2023-04-05T00:36:20.231Z,12.41
2023-04-05T00:36:41.906Z,12.39
2023-04-05T00:37:03.667Z,12.39
2023-04-05T00:37:26.279Z,12.20
2023-04-05T00:37:48.194Z,12.37
2023-04-05T00:38:09.855Z,12.38
2023-04-05T00:38:31.507Z,12.37
2023-04-05T00:38:54.039Z,12.32
2023-04-05T00:39:16.038Z,12.37
2023-04-05T00:39:38.214Z,12.37
2023-04-05T00:39:59.925Z,12.38
2023-04-05T00:40:21.810Z,12.37
2023-04-05T00:40:44.361Z,12.36
2023-04-05T00:41:06.167Z,12.35
2023-04-05T00:41:27.991Z,12.35
2023-04-05T00:41:49.709Z,12.35
2023-04-05T00:42:12.646Z,12.34
2023-04-05T00:42:36.384Z,12.32
2023-04-05T00:42:57.967Z,12.30
2023-04-05T00:43:21.076Z,12.34
2023-04-05T00:43:43.776Z,12.36
2023-04-05T00:44:07.557Z,12.39
2023-04-05T00:44:29.195Z,12.35
2023-04-05T00:44:50.976Z,12.36
2023-04-05T00:45:13.194Z,12.36
2023-04-05T00:45:36.377Z,12.36
2023-04-05T00:45:58.167Z,12.35
2023-04-05T00:46:20.566Z,12.34
2023-04-05T00:46:42.333Z,12.36
2023-04-05T00:47:06.537Z,12.36
2023-04-05T00:47:28.559Z,12.35
2023-04-05T00:47:50.789Z,12.37
2023-04-05T00:48:12.462Z,12.35
2023-04-05T00:48:34.565Z,12.31
2023-04-05T00:48:57.533Z,12.36
2023-04-05T00:49:19.431Z,12.34
2023-04-05T00:49:41.930Z,12.34
2023-04-05T00:50:03.897Z,12.36
2023-04-05T00:50:30.114Z,12.39
2023-04-05T00:50:53.428Z,12.40
2023-04-05T00:51:15.315Z,12.39
2023-04-05T00:51:37.912Z,12.41
2023-04-05T00:52:01.163Z,12.41
2023-04-05T00:52:23.388Z,12.42
2023-04-05T00:52:46.816Z,12.40
2023-04-05T00:53:08.528Z,12.36
2023-04-05T00:53:32.166Z,12.38
2023-04-05T00:53:55.336Z,12.38
2023-04-05T00:54:18.503Z,12.35
2023-04-05T00:54:42.909Z,12.35
2023-04-05T00:55:06.030Z,12.30
2023-04-05T00:55:28.967Z,12.31
2023-04-05T00:55:51.755Z,12.30
2023-04-05T00:56:15.074Z,12.30
2023-04-05T00:56:37.185Z,12.30
2023-04-05T00:57:00.672Z,12.30
2023-04-05T00:57:22.880Z,12.30
2023-04-05T00:57:45.231Z,12.32
2023-04-05T00:58:09.106Z,12.33
2023-04-05T00:58:33.745Z,12.36
2023-04-05T00:58:56.308Z,12.39
2023-04-05T00:59:18.357Z,12.39
2023-04-05T00:59:40.208Z,12.30
2023-04-05T01:00:06.674Z,12.41
2023-04-05T01:00:30.204Z,12.39
2023-04-05T01:00:59.445Z,12.37
2023-04-05T01:01:24.012Z,12.36
2023-04-05T01:01:54.935Z,12.35
2023-04-05T01:02:24.524Z,12.37
2023-04-05T01:02:51.940Z,12.37
2023-04-05T01:03:13.790Z,12.37
2023-04-05T01:03:37.003Z,12.37
2023-04-05T01:04:02.929Z,12.36
2023-04-05T01:04:27.696Z,12.37
2023-04-05T01:05:01.441Z,12.39
2023-04-05T01:05:34.786Z,12.33
2023-04-05T01:06:09.717Z,12.36
2023-04-05T01:06:46.765Z,12.35
2023-04-05T01:07:16.315Z,12.31
2023-04-05T01:07:42.842Z,12.31
2023-04-05T01:08:16.034Z,12.36
2023-04-05T01:08:46.616Z,12.22
2023-04-05T01:09:17.828Z,12.36
2023-04-05T01:09:46.808Z,12.39
2023-04-05T01:10:11.430Z,12.38
2023-04-05T01:10:39.338Z,12.36
2023-04-05T01:11:06.375Z,12.37
2023-04-05T01:11:30.639Z,12.37
2023-04-05T01:11:55.970Z,12.39
2023-04-05T01:12:19.565Z,12.38
2023-04-05T01:12:41.897Z,12.37
2023-04-05T01:13:03.773Z,12.38
2023-04-05T01:13:26.121Z,12.39
2023-04-05T01:13:50.526Z,12.40
2023-04-05T01:14:12.237Z,12.41
2023-04-05T01:14:44.426Z,12.40
2023-04-05T01:15:07.372Z,12.41
2023-04-05T01:15:30.127Z,12.43
2023-04-05T01:15:51.867Z,12.40
2023-04-05T01:16:14.471Z,12.40
2023-04-05T01:16:37.507Z,12.44
2023-04-05T01:17:00.124Z,12.46
2023-04-05T01:17:23.013Z,12.45
2023-04-05T01:17:46.962Z,12.24
2023-04-05T01:18:10.522Z,12.44
2023-04-05T01:18:36.359Z,12.45
2023-04-05T01:18:58.477Z,12.47
2023-04-05T01:19:20.320Z,12.38
2023-04-05T01:19:48.068Z,12.44
2023-04-05T01:20:11.912Z,12.40
2023-04-05T01:20:40.586Z,12.38
2023-04-05T01:21:24.593Z,12.48
2023-04-05T01:22:26.462Z,12.50
2023-04-05T01:23:20.104Z,12.53
2023-04-05T01:23:50.517Z,12.51
2023-04-05T01:24:23.057Z,12.49
2023-04-05T01:25:02.597Z,12.50
2023-04-05T01:25:58.666Z,12.54
2023-04-05T01:26:46.298Z,12.54
2023-04-05T01:27:12.794Z,12.55
2023-04-05T01:27:57.081Z,12.54
2023-04-05T01:28:52.496Z,12.55
2023-04-05T01:29:40.716Z,12.49
2023-04-05T01:30:06.654Z,12.54
2023-04-05T01:30:33.510Z,12.43
2023-04-05T01:31:04.454Z,12.43
2023-04-05T01:31:33.032Z,12.49
2023-04-05T01:32:01.352Z,12.54
2023-04-05T01:32:41.429Z,12.53
2023-04-05T01:33:15.263Z,12.32
2023-04-05T01:33:44.413Z,12.53
2023-04-05T01:34:17.194Z,12.55
2023-04-05T01:34:49.809Z,12.54
2023-04-05T01:35:21.280Z,12.53
2023-04-05T01:35:51.243Z,12.49
2023-04-05T01:36:17.927Z,12.52
2023-04-05T01:36:42.218Z,12.48
2023-04-05T01:37:09.593Z,12.54
2023-04-05T01:37:34.308Z,12.48
2023-04-05T01:38:01.602Z,12.55
2023-04-05T01:38:25.455Z,12.48
2023-04-05T01:38:50.806Z,12.57
2023-04-05T01:39:17.214Z,12.56
2023-04-05T01:39:39.811Z,12.60
2023-04-05T01:40:01.814Z,12.61
2023-04-05T01:40:26.231Z,12.61
2023-04-05T01:40:49.771Z,12.61
2023-04-05T01:41:12.795Z,12.61
2023-04-05T01:41:34.884Z,12.58
2023-04-05T01:41:59.397Z,12.52
2023-04-05T01:42:25.313Z,12.55
2023-04-05T01:42:47.941Z,12.57
2023-04-05T01:43:13.370Z,12.55
2023-04-05T01:43:35.037Z,12.44
2023-04-05T01:43:56.716Z,12.38
2023-04-05T01:44:19.427Z,12.38
2023-04-05T01:44:42.389Z,12.36
2023-04-05T01:45:05.293Z,12.38
2023-04-05T01:45:27.931Z,12.38
2023-04-05T01:45:49.676Z,12.44
2023-04-05T01:46:11.409Z,12.46
2023-04-05T01:46:33.311Z,12.48
2023-04-05T01:46:55.276Z,12.49
2023-04-05T01:47:17.902Z,12.52
2023-04-05T01:47:39.602Z,12.43
2023-04-05T01:48:01.513Z,12.57
2023-04-05T01:48:23.174Z,12.55
2023-04-05T01:48:46.405Z,12.55
2023-04-05T01:49:09.051Z,12.56
2023-04-05T01:49:30.758Z,12.56
2023-04-05T01:49:52.440Z,12.54
2023-04-05T01:50:15.575Z,12.57
2023-04-05T01:50:37.306Z,12.50
2023-04-05T01:50:58.916Z,12.49
2023-04-05T01:51:21.035Z,12.48
2023-04-05T01:51:42.758Z,12.26
2023-04-05T01:52:05.452Z,12.47
2023-04-05T01:52:27.080Z,12.34
2023-04-05T01:52:48.689Z,12.44
2023-04-05T01:53:11.427Z,12.41
2023-04-05T01:53:34.182Z,12.49
2023-04-05T01:53:55.782Z,12.43
2023-04-05T01:54:17.605Z,12.50
2023-04-05T01:54:39.426Z,12.46
2023-04-05T01:55:03.272Z,12.52
2023-04-05T01:55:24.959Z,12.52
2023-04-05T01:55:46.561Z,12.48
2023-04-05T01:56:08.224Z,12.51
2023-04-05T01:56:33.024Z,12.50
2023-04-05T01:56:54.669Z,12.50
2023-04-05T01:57:16.297Z,12.52
2023-04-05T01:57:40.577Z,12.50
2023-04-05T01:58:02.241Z,12.35
2023-04-05T01:58:24.882Z,12.37
2023-04-05T01:58:46.537Z,12.54
2023-04-05T01:59:08.250Z,12.57
2023-04-05T01:59:30.109Z,12.53
2023-04-05T01:59:56.733Z,12.51
2023-04-05T02:00:19.087Z,12.52
2023-04-05T02:00:40.924Z,12.51
2023-04-05T02:01:03.764Z,12.55
2023-04-05T02:01:25.493Z,12.55
2023-04-05T02:01:47.224Z,12.55
2023-04-05T02:02:08.857Z,12.56
2023-04-05T02:02:31.509Z,12.55
2023-04-05T02:02:53.209Z,12.57
2023-04-05T02:03:15.049Z,12.44
2023-04-05T02:03:37.008Z,12.48
2023-04-05T02:03:59.840Z,12.47
2023-04-05T02:04:21.521Z,12.49
2023-04-05T02:04:43.577Z,12.47
2023-04-05T02:05:06.115Z,12.43
2023-04-05T02:05:28.698Z,12.38
2023-04-05T02:05:50.555Z,12.45
2023-04-05T02:06:12.270Z,12.44
2023-04-05T02:06:33.954Z,12.45
2023-04-05T02:06:56.813Z,12.46
2023-04-05T02:07:19.478Z,12.48
2023-04-05T02:07:41.126Z,12.42
2023-04-05T02:08:05.136Z,12.42
2023-04-05T02:08:26.859Z,12.44
2023-04-05T02:08:49.581Z,12.37
2023-04-05T02:09:13.451Z,12.34
2023-04-05T02:09:35.142Z,12.25
2023-04-05T02:09:56.786Z,12.29
2023-04-05T02:10:19.441Z,12.29
2023-04-05T02:10:42.934Z,12.32
2023-04-05T02:11:04.838Z,12.32
2023-04-05T02:11:26.639Z,12.30
2023-04-05T02:11:52.379Z,12.29
2023-04-05T02:12:15.009Z,12.27
2023-04-05T02:12:36.684Z,12.32
2023-04-05T02:12:58.341Z,12.30
2023-04-05T02:13:22.048Z,12.28
2023-04-05T02:13:44.737Z,12.29
2023-04-05T02:14:06.433Z,12.22
2023-04-05T02:14:28.688Z,12.23
2023-04-05T02:14:52.583Z,12.23
2023-04-05T02:15:16.198Z,12.25
2023-04-05T02:15:37.909Z,12.25
2023-04-05T02:16:00.586Z,12.10
2023-04-05T02:16:25.647Z,12.29
2023-04-05T02:16:47.825Z,12.27
2023-04-05T02:17:09.589Z,12.29
2023-04-05T02:17:34.177Z,12.30
2023-04-05T02:17:56.001Z,12.31
2023-04-05T02:18:22.300Z,12.33
2023-04-05T02:18:50.724Z,12.32
2023-04-05T02:19:13.746Z,12.31
2023-04-05T02:19:40.641Z,12.31
2023-04-05T02:20:02.528Z,12.32
2023-04-05T02:20:25.985Z,12.36
2023-04-05T02:20:49.874Z,12.35
2023-04-05T02:21:16.890Z,12.36
2023-04-05T02:21:38.977Z,12.39
2023-04-05T02:22:00.559Z,12.39
2023-04-05T02:22:23.940Z,12.41
2023-04-05T02:22:45.941Z,12.39
2023-04-05T02:23:09.621Z,12.31
2023-04-05T02:23:32.112Z,12.38
2023-04-05T02:23:53.940Z,12.40
2023-04-05T02:24:15.600Z,12.39
2023-04-05T02:24:38.513Z,12.41
2023-04-05T02:25:01.241Z,12.41
2023-04-05T02:25:23.030Z,12.43
2023-04-05T02:25:44.676Z,12.43
2023-04-05T02:26:06.342Z,12.48
2023-04-05T02:26:29.021Z,12.47
2023-04-05T02:26:52.634Z,12.43
2023-04-05T02:27:14.392Z,12.47
2023-04-05T02:27:36.261Z,12.48
2023-04-05T02:27:58.185Z,12.46
2023-04-05T02:28:20.836Z,12.51
2023-04-05T02:28:42.510Z,12.50
2023-04-05T02:29:04.240Z,12.49
2023-04-05T02:29:26.346Z,12.49
2023-04-05T02:29:49.398Z,12.48
2023-04-05T02:30:13.923Z,12.49
2023-04-05T02:30:38.166Z,12.46
2023-04-05T02:30:59.863Z,12.50
2023-04-05T02:31:21.570Z,12.47
2023-04-05T02:31:44.577Z,12.51
2023-04-05T02:32:08.631Z,12.52
2023-04-05T02:32:31.945Z,12.52
2023-04-05T02:32:53.628Z,12.56
2023-04-05T02:33:15.405Z,12.55
2023-04-05T02:33:38.024Z,12.58
2023-04-05T02:34:00.967Z,12.57
2023-04-05T02:34:22.902Z,12.51
2023-04-05T02:34:46.254Z,12.58
2023-04-05T02:35:10.653Z,12.54
2023-04-05T02:35:32.308Z,12.52
2023-04-05T02:35:54.155Z,12.52
2023-04-05T02:36:16.388Z,12.50
2023-04-05T02:36:41.898Z,12.51
2023-04-05T02:37:04.568Z,12.50
2023-04-05T02:37:27.377Z,12.49
2023-04-05T02:37:48.997Z,12.44
2023-04-05T02:38:10.643Z,12.45
2023-04-05T02:38:32.387Z,12.43
2023-04-05T02:38:56.112Z,12.41
2023-04-05T02:39:18.331Z,12.33
2023-04-05T02:39:40.145Z,12.34
2023-04-05T02:40:02.046Z,12.33
2023-04-05T02:40:23.725Z,12.33
2023-04-05T02:40:47.422Z,12.34
2023-04-05T02:41:10.266Z,12.32
2023-04-05T02:41:33.259Z,12.30
2023-04-05T02:41:54.933Z,12.36
2023-04-05T02:42:16.697Z,12.38
2023-04-05T02:42:39.341Z,12.38
2023-04-05T02:43:01.340Z,12.38
2023-04-05T02:43:23.038Z,12.23
2023-04-05T02:43:44.708Z,12.39
2023-04-05T02:44:07.424Z,12.24
2023-04-05T02:44:30.157Z,12.39
2023-04-05T02:44:52.236Z,12.40
2023-04-05T02:45:14.417Z,12.40
2023-04-05T02:45:37.210Z,12.42
2023-04-05T02:46:00.628Z,12.42
2023-04-05T02:46:22.404Z,12.42
2023-04-05T02:46:44.084Z,12.44
2023-04-05T02:47:06.901Z,12.43
2023-04-05T02:47:28.556Z,12.45
2023-04-05T02:47:53.815Z,12.44
2023-04-05T02:48:15.462Z,12.43
2023-04-05T02:48:39.431Z,12.25
2023-04-05T02:49:01.498Z,12.42
2023-04-05T02:49:25.155Z,12.39
2023-04-05T02:49:47.946Z,12.39
2023-04-05T02:50:11.471Z,12.31
2023-04-05T02:50:37.932Z,12.36
2023-04-05T02:51:00.677Z,12.35
2023-04-05T02:51:22.497Z,12.27
2023-04-05T02:51:45.122Z,12.34
2023-04-05T02:52:06.732Z,12.36
2023-04-05T02:52:28.991Z,12.09
2023-04-05T02:52:51.279Z,12.32
2023-04-05T02:53:14.677Z,12.20
2023-04-05T02:53:37.540Z,12.22
2023-04-05T02:54:02.931Z,12.06
2023-04-05T02:54:26.179Z,12.19
2023-04-05T02:54:54.426Z,12.18
2023-04-05T02:55:21.117Z,12.18
2023-04-05T02:55:43.166Z,12.15
2023-04-05T02:56:05.937Z,12.10
2023-04-05T02:56:30.436Z,12.15
2023-04-05T02:56:57.648Z,12.10
2023-04-05T02:57:22.282Z,12.10
2023-04-05T02:57:50.267Z,12.05
2023-04-05T02:58:28.516Z,12.02
2023-04-05T02:58:50.236Z,12.02
2023-04-05T02:59:17.668Z,12.01
2023-04-05T02:59:40.738Z,12.00
2023-04-05T03:00:05.114Z,11.99
2023-04-05T03:00:28.137Z,12.01
2023-04-05T03:00:54.343Z,12.02
2023-04-05T03:01:24.425Z,11.80
2023-04-05T03:01:48.164Z,11.78
2023-04-05T03:02:17.471Z,11.85
2023-04-05T03:02:39.826Z,11.85
2023-04-05T03:03:01.500Z,11.84
2023-04-05T03:03:24.780Z,11.82
2023-04-05T03:03:46.560Z,11.73
2023-04-05T03:04:12.077Z,11.74
2023-04-05T03:04:34.803Z,11.70
2023-04-05T03:05:02.204Z,11.71
2023-04-05T03:05:25.898Z,11.63
2023-04-05T03:05:49.396Z,11.71
2023-04-05T03:06:15.309Z,11.76
2023-04-05T03:06:46.189Z,11.76
2023-04-05T03:07:10.388Z,11.75
2023-04-05T03:07:35.433Z,11.79
2023-04-05T03:08:02.254Z,11.72
2023-04-05T03:08:26.716Z,11.56
2023-04-05T03:08:57.642Z,11.76
2023-04-05T03:09:20.819Z,11.82
2023-04-05T03:09:47.435Z,11.87
2023-04-05T03:10:09.678Z,11.89
2023-04-05T03:10:36.696Z,11.91
2023-04-05T03:11:08.028Z,11.87
2023-04-05T03:11:31.559Z,11.88
2023-04-05T03:11:54.858Z,11.92
2023-04-05T03:12:16.502Z,11.84
2023-04-05T03:12:39.684Z,11.84
2023-04-05T03:13:02.728Z,11.88
2023-04-05T03:13:25.150Z,11.74
2023-04-05T03:13:48.442Z,11.88
2023-04-05T03:14:42.840Z,11.89
2023-04-05T03:15:10.680Z,11.93
2023-04-05T03:15:36.667Z,11.87
2023-04-05T03:16:04.122Z,11.94
2023-04-05T03:16:27.446Z,11.96
2023-04-05T03:16:51.458Z,11.91
2023-04-05T03:17:19.740Z,11.93
2023-04-05T03:17:51.062Z,11.95
2023-04-05T03:18:13.004Z,11.97
2023-04-05T03:18:37.158Z,11.84
2023-04-05T03:19:05.426Z,11.93
2023-04-05T03:19:28.835Z,11.95
2023-04-05T03:20:00.749Z,11.93
2023-04-05T03:20:22.565Z,11.93
2023-04-05T03:20:46.040Z,11.91
2023-04-05T03:21:14.332Z,11.90
2023-04-05T03:21:46.269Z,11.83
2023-04-05T03:22:21.253Z,11.82
2023-04-05T03:22:43.236Z,11.90
2023-04-05T03:23:08.948Z,11.84
2023-04-05T03:23:32.227Z,11.89
2023-04-05T03:23:55.836Z,11.80
2023-04-05T03:24:23.051Z,11.84
2023-04-05T03:24:46.517Z,11.82
2023-04-05T03:25:10.013Z,11.79
2023-04-05T03:25:38.468Z,11.74
2023-04-05T03:26:02.988Z,11.74
2023-04-05T03:26:28.586Z,11.75
2023-04-05T03:26:50.307Z,11.74
2023-04-05T03:27:14.978Z,11.53
2023-04-05T03:27:57.906Z,11.75
2023-04-05T03:28:23.770Z,11.77
2023-04-05T03:28:49.212Z,11.72
2023-04-05T03:29:11.637Z,11.56
2023-04-05T03:29:34.403Z,11.61
2023-04-05T03:30:04.356Z,11.72
2023-04-05T03:30:30.719Z,11.67
2023-04-05T03:31:00.582Z,11.66
2023-04-05T03:31:22.384Z,11.69
2023-04-05T03:31:45.967Z,11.68
2023-04-05T03:32:11.854Z,11.68
2023-04-05T03:32:38.552Z,11.64
2023-04-05T03:33:10.887Z,11.57
2023-04-05T03:33:37.486Z,11.59
2023-04-05T03:34:00.706Z,11.60
2023-04-05T03:34:28.904Z,11.53
2023-04-05T03:34:55.021Z,11.60
2023-04-05T03:35:19.078Z,11.60
2023-04-05T03:35:43.329Z,11.57
2023-04-05T03:36:06.574Z,11.39
2023-04-05T03:36:42.377Z,11.56
2023-04-05T03:37:12.724Z,11.42
2023-04-05T03:37:40.591Z,11.48
2023-04-05T03:38:05.747Z,11.50
2023-04-05T03:38:28.304Z,11.46
2023-04-05T03:39:10.416Z,11.54
2023-04-05T03:39:33.258Z,11.58
2023-04-05T03:39:55.249Z,11.52
2023-04-05T03:40:16.929Z,11.28
2023-04-05T03:40:38.781Z,11.47
2023-04-05T03:41:04.891Z,11.36
2023-04-05T03:41:26.965Z,11.41
2023-04-05T03:41:48.704Z,11.41
2023-04-05T03:42:10.506Z,11.27
2023-04-05T03:42:32.352Z,11.38
2023-04-05T03:42:55.166Z,11.39
2023-04-05T03:43:16.814Z,11.44
2023-04-05T03:43:38.486Z,11.48
2023-04-05T03:44:01.151Z,11.42
2023-04-05T03:44:23.796Z,11.53
2023-04-05T03:44:45.467Z,11.53
2023-04-05T03:45:08.496Z,11.50
2023-04-05T03:45:30.258Z,11.54
2023-04-05T03:45:52.899Z,11.55
2023-04-05T03:46:14.955Z,11.46
2023-04-05T03:46:38.014Z,11.32
2023-04-05T03:47:02.770Z,11.58
2023-04-05T03:47:26.443Z,11.58
2023-04-05T03:47:49.358Z,11.59
2023-04-05T03:48:11.106Z,11.57
2023-04-05T03:48:32.807Z,11.36
2023-04-05T03:48:54.496Z,11.45
2023-04-05T03:49:16.532Z,11.49
2023-04-05T03:49:39.878Z,11.45
2023-04-05T03:50:02.769Z,11.51
2023-04-05T03:50:26.666Z,11.51
2023-04-05T03:50:48.460Z,11.55
2023-04-05T03:51:11.079Z,11.53
2023-04-05T03:51:35.439Z,11.46
2023-04-05T03:51:57.196Z,11.48
2023-04-05T03:52:19.077Z,11.50
2023-04-05T03:52:40.808Z,11.53
2023-04-05T03:53:03.887Z,11.55
2023-04-05T03:53:26.443Z,11.49
2023-04-05T03:53:51.193Z,11.53
2023-04-05T03:54:13.321Z,11.55
2023-04-05T03:54:35.974Z,11.47
2023-04-05T03:54:58.651Z,11.50
2023-04-05T03:55:22.261Z,11.51
2023-04-05T03:55:49.330Z,11.51
2023-04-05T03:56:13.935Z,11.51
2023-04-05T03:56:41.195Z,11.49
2023-04-05T03:57:18.163Z,11.47
2023-04-05T03:57:41.669Z,11.46
2023-04-05T03:58:16.070Z,11.46
2023-04-05T03:58:38.075Z,11.46
2023-04-05T03:58:59.894Z,11.44
2023-04-05T03:59:23.698Z,11.38
2023-04-05T03:59:46.353Z,11.27
2023-04-05T04:00:14.338Z,11.30
2023-04-05T04:00:39.216Z,11.31
2023-04-05T04:01:08.847Z,11.24
2023-04-05T04:01:30.698Z,11.29
2023-04-05T04:01:53.224Z,11.24
2023-04-05T04:02:17.962Z,11.26
2023-04-05T04:02:43.270Z,11.27
2023-04-05T04:03:05.270Z,11.29
2023-04-05T04:03:28.869Z,11.31
2023-04-05T04:03:51.681Z,11.30
2023-04-05T04:04:13.607Z,11.29
2023-04-05T04:04:38.888Z,11.32
2023-04-05T04:05:01.324Z,11.36
2023-04-05T04:05:24.143Z,11.36
2023-04-05T04:05:49.015Z,11.37
2023-04-05T04:06:11.318Z,11.37
2023-04-05T04:06:33.300Z,11.30
2023-04-05T04:06:56.379Z,11.44
2023-04-05T04:07:20.123Z,11.46
2023-04-05T04:07:42.649Z,11.49
2023-04-05T04:08:04.707Z,11.50
2023-04-05T04:08:27.379Z,11.49
2023-04-05T04:08:49.187Z,11.50
2023-04-05T04:09:11.275Z,11.53
2023-04-05T04:09:33.198Z,11.43
2023-04-05T04:10:02.196Z,11.46
2023-04-05T04:10:25.428Z,11.39
2023-04-05T04:10:50.960Z,11.40
2023-04-05T04:11:21.788Z,11.44
2023-04-05T04:11:43.633Z,11.45
2023-04-05T04:12:06.244Z,11.26
2023-04-05T04:12:29.576Z,11.13
2023-04-05T04:12:54.771Z,11.38
2023-04-05T04:13:22.717Z,11.41
2023-04-05T04:13:53.999Z,11.42
2023-04-05T04:14:36.034Z,11.47
2023-04-05T04:15:18.138Z,11.48
2023-04-05T04:16:01.240Z,11.51
2023-04-05T04:16:32.104Z,11.47
2023-04-05T04:17:03.302Z,11.48
2023-04-05T04:17:54.898Z,11.43
2023-04-05T04:18:35.431Z,11.39
2023-04-05T04:19:18.015Z,11.03
2023-04-05T04:19:56.923Z,11.01
2023-04-05T04:20:39.671Z,11.20
2023-04-05T04:21:24.802Z,11.25
2023-04-05T04:22:10.169Z,11.26
2023-04-05T04:22:53.706Z,11.26
2023-04-05T04:23:46.015Z,11.25
2023-04-05T04:24:27.406Z,11.30
2023-04-05T04:25:10.384Z,11.33
2023-04-05T04:25:50.514Z,11.34
2023-04-05T04:26:40.979Z,11.36
2023-04-05T04:27:10.681Z,11.34
2023-04-05T04:27:51.190Z,11.29
2023-04-05T04:28:38.682Z,11.26
2023-04-05T04:29:19.058Z,11.35
2023-04-05T04:30:13.038Z,11.27
2023-04-05T04:30:46.602Z,11.32
2023-04-05T04:31:30.610Z,11.35
2023-04-05T04:32:45.857Z,11.15
2023-04-05T04:33:24.060Z,11.12
2023-04-05T04:33:59.220Z,11.08
2023-04-05T04:34:44.870Z,11.05
2023-04-05T04:35:38.950Z,10.95
2023-04-05T04:36:35.137Z,10.92
2023-04-05T04:37:37.537Z,10.79
2023-04-05T04:38:26.881Z,10.81
2023-04-05T04:39:07.933Z,10.79
2023-04-05T04:40:08.850Z,10.75
2023-04-05T04:40:54.701Z,10.78
2023-04-05T04:41:20.084Z,10.80
2023-04-05T04:42:05.629Z,10.81
2023-04-05T04:42:48.101Z,10.74
2023-04-05T04:43:33.841Z,10.83
2023-04-05T04:44:31.348Z,10.79
2023-04-05T04:45:15.999Z,10.66
2023-04-05T04:45:47.042Z,10.74
2023-04-05T04:46:30.687Z,10.71
2023-04-05T04:46:58.730Z,10.72
2023-04-05T04:47:42.144Z,10.74
2023-04-05T04:48:14.068Z,10.73
2023-04-05T04:48:58.638Z,10.79
2023-04-05T04:49:28.276Z,10.81
2023-04-05T04:49:50.935Z,10.82
2023-04-05T04:50:13.581Z,10.79
2023-04-05T04:50:36.015Z,10.80
2023-04-05T04:50:58.879Z,10.83
2023-04-05T04:51:23.197Z,10.83
2023-04-05T04:51:44.847Z,10.76
2023-04-05T04:52:06.504Z,10.83
2023-04-05T04:52:28.249Z,10.75
2023-04-05T04:52:50.972Z,10.52
2023-04-05T04:53:14.308Z,10.56
2023-04-05T04:53:36.039Z,10.54
2023-04-05T04:53:57.705Z,10.76
2023-04-05T04:54:22.158Z,10.72
2023-04-05T04:54:47.206Z,10.76
2023-04-05T04:55:10.149Z,10.81
2023-04-05T04:55:33.523Z,10.82
2023-04-05T04:55:56.547Z,10.82
2023-04-05T04:56:18.278Z,10.85
2023-04-05T04:56:39.994Z,10.82
2023-04-05T04:57:02.372Z,10.76
2023-04-05T04:57:25.935Z,10.72
2023-04-05T04:57:48.361Z,10.75
2023-04-05T04:58:11.516Z,10.79
2023-04-05T04:58:33.413Z,10.78
2023-04-05T04:59:01.920Z,10.80
2023-04-05T04:59:23.570Z,10.83
2023-04-05T04:59:45.287Z,10.71
2023-04-05T05:00:12.190Z,10.60
2023-04-05T05:00:34.777Z,10.66
2023-04-05T05:00:58.218Z,10.66
2023-04-05T05:01:19.988Z,10.65
2023-04-05T05:01:45.112Z,10.68
2023-04-05T05:02:08.213Z,10.54
2023-04-05T05:02:31.294Z,10.58
2023-04-05T05:02:53.729Z,10.49
2023-04-05T05:03:16.625Z,10.53
2023-04-05T05:03:39.624Z,10.61
2023-04-05T05:04:03.298Z,10.67
2023-04-05T05:04:29.197Z,10.72
2023-04-05T05:04:51.338Z,10.74
2023-04-05T05:05:14.521Z,10.74
2023-04-05T05:05:36.132Z,10.74
2023-04-05T05:05:57.798Z,10.74
2023-04-05T05:06:25.019Z,10.76
2023-04-05T05:06:47.768Z,10.78
2023-04-05T05:07:10.790Z,10.79
2023-04-05T05:07:32.460Z,10.81
2023-04-05T05:07:55.251Z,10.79
2023-04-05T05:08:19.559Z,10.79
2023-04-05T05:08:42.874Z,10.81
2023-04-05T05:09:04.687Z,10.73
2023-04-05T05:09:32.185Z,10.85
2023-04-05T05:09:54.387Z,10.86
2023-04-05T05:10:16.391Z,10.90
2023-04-05T05:10:38.072Z,10.91
2023-04-05T05:11:01.124Z,10.89
2023-04-05T05:11:22.951Z,10.78
2023-04-05T05:11:44.558Z,10.90
2023-04-05T05:12:07.510Z,10.90
2023-04-05T05:12:31.356Z,10.88
2023-04-05T05:12:53.767Z,10.89
2023-04-05T05:13:15.427Z,10.89
2023-04-05T05:13:37.039Z,10.89
2023-04-05T05:13:59.631Z,10.91
2023-04-05T05:14:23.020Z,10.89
2023-04-05T05:14:44.684Z,10.93
2023-04-05T05:15:07.732Z,10.91
2023-04-05T05:15:30.386Z,10.91
2023-04-05T05:15:52.816Z,10.89
2023-04-05T05:16:14.545Z,10.86
2023-04-05T05:16:37.092Z,10.87
2023-04-05T05:16:59.229Z,10.88
2023-04-05T05:17:25.014Z,10.85
2023-04-05T05:17:47.210Z,10.81
2023-04-05T05:18:09.037Z,10.81
2023-04-05T05:18:30.754Z,10.76
2023-04-05T05:18:53.427Z,10.76
2023-04-05T05:19:17.739Z,10.75
2023-04-05T05:19:42.942Z,10.77
2023-04-05T05:20:10.510Z,10.77
2023-04-05T05:20:33.108Z,10.74
2023-04-05T05:20:56.817Z,10.70
2023-04-05T05:21:18.536Z,10.62
2023-04-05T05:21:50.108Z,10.64
2023-04-05T05:22:11.801Z,10.66
2023-04-05T05:22:33.420Z,10.68
2023-04-05T05:22:55.205Z,10.60
2023-04-05T05:23:17.928Z,10.62
2023-04-05T05:23:39.544Z,10.62
2023-04-05T05:24:01.205Z,10.38
2023-04-05T05:24:22.995Z,10.37
2023-04-05T05:24:46.482Z,10.52
2023-04-05T05:25:09.958Z,10.62
2023-04-05T05:25:31.909Z,10.63
2023-04-05T05:25:58.105Z,10.66
2023-04-05T05:26:21.267Z,10.63
2023-04-05T05:26:44.093Z,10.67
2023-04-05T05:27:05.882Z,10.67